Concepcion de la Sierra, Argentina
Current Conditions -  °F | °C
As of 5:00 AM on Thursday 27 Nov 2014 (Local Time) from SARP Reporting Station
Clear Clear  
Wind Chill: 72°   Ceiling: Unl
Heat Index: 72°   Visibility: 6mi
Dew Point: 64°   Wind: 9mph
Humidity: 78%   Direction: 140°SE
Pressure: 29.88"   Gusts: NA
Location:  27.98°S, 55.52°W
Report Text: SARP 270800Z 14008KT CAVOK 22/18 Q1012
Loading
Personal Weather Stations






























Interactive Weather Map New forecast layout! Learn more

10-Day Weather Forecast

Advertisements
Track Severe Weather on mobile